sensor_id;sensor_type;location;lat;lon;timestamp;temperature;humidity
20091;DHT22;10205;49.678;6.560;2023-05-29T00:00:46;25.70;37.00
20091;DHT22;10205;49.678;6.560;2023-05-29T00:03:14;25.60;37.00
20091;DHT22;10205;49.678;6.560;2023-05-29T00:05:43;25.60;37.20
20091;DHT22;10205;49.678;6.560;2023-05-29T00:08:10;25.50;37.10
20091;DHT22;10205;49.678;6.560;2023-05-29T00:10:37;25.50;37.30
20091;DHT22;10205;49.678;6.560;2023-05-29T00:13:04;25.40;37.40
20091;DHT22;10205;49.678;6.560;2023-05-29T00:15:32;25.30;37.40
20091;DHT22;10205;49.678;6.560;2023-05-29T00:17:59;25.30;37.40
20091;DHT22;10205;49.678;6.560;2023-05-29T00:20:28;25.20;38.20
20091;DHT22;10205;49.678;6.560;2023-05-29T00:22:55;25.20;37.70
20091;DHT22;10205;49.678;6.560;2023-05-29T00:25:22;25.10;37.70
20091;DHT22;10205;49.678;6.560;2023-05-29T00:27:49;25.00;37.80
20091;DHT22;10205;49.678;6.560;2023-05-29T00:30:16;25.00;37.90
20091;DHT22;10205;49.678;6.560;2023-05-29T00:32:43;24.90;37.90
20091;DHT22;10205;49.678;6.560;2023-05-29T00:35:11;24.90;38.00
20091;DHT22;10205;49.678;6.560;2023-05-29T00:37:39;24.80;38.00
20091;DHT22;10205;49.678;6.560;2023-05-29T00:40:07;24.80;38.20
20091;DHT22;10205;49.678;6.560;2023-05-29T00:42:35;24.70;38.20
20091;DHT22;10205;49.678;6.560;2023-05-29T00:45:03;24.70;38.30
20091;DHT22;10205;49.678;6.560;2023-05-29T00:47:30;24.60;38.30
20091;DHT22;10205;49.678;6.560;2023-05-29T00:49:58;24.60;38.40
20091;DHT22;10205;49.678;6.560;2023-05-29T00:52:26;24.50;38.40
20091;DHT22;10205;49.678;6.560;2023-05-29T00:54:55;24.40;38.50
20091;DHT22;10205;49.678;6.560;2023-05-29T00:57:23;24.40;38.70
20091;DHT22;10205;49.678;6.560;2023-05-29T00:59:50;24.40;38.80
20091;DHT22;10205;49.678;6.560;2023-05-29T01:02:18;24.30;38.80
20091;DHT22;10205;49.678;6.560;2023-05-29T01:04:48;24.20;38.90
20091;DHT22;10205;49.678;6.560;2023-05-29T01:07:15;24.20;38.90
20091;DHT22;10205;49.678;6.560;2023-05-29T01:09:42;24.10;39.00
20091;DHT22;10205;49.678;6.560;2023-05-29T01:12:19;24.10;39.10
20091;DHT22;10205;49.678;6.560;2023-05-29T01:15:04;24.00;39.30
20091;DHT22;10205;49.678;6.560;2023-05-29T01:17:57;24.00;39.40
20091;DHT22;10205;49.678;6.560;2023-05-29T01:20:37;23.90;39.40
20091;DHT22;10205;49.678;6.560;2023-05-29T01:23:31;23.80;39.30
20091;DHT22;10205;49.678;6.560;2023-05-29T01:26:23;23.80;39.50
20091;DHT22;10205;49.678;6.560;2023-05-29T01:29:23;23.70;39.50
20091;DHT22;10205;49.678;6.560;2023-05-29T01:31:53;23.70;39.50
20091;DHT22;10205;49.678;6.560;2023-05-29T01:34:20;23.60;39.40
20091;DHT22;10205;49.678;6.560;2023-05-29T01:36:47;23.60;39.50
20091;DHT22;10205;49.678;6.560;2023-05-29T01:39:15;23.50;39.50
20091;DHT22;10205;49.678;6.560;2023-05-29T01:41:45;23.40;39.70
20091;DHT22;10205;49.678;6.560;2023-05-29T01:44:14;23.40;39.80
20091;DHT22;10205;49.678;6.560;2023-05-29T01:46:44;23.40;39.90
20091;DHT22;10205;49.678;6.560;2023-05-29T01:49:12;23.30;40.00
20091;DHT22;10205;49.678;6.560;2023-05-29T01:51:41;23.20;40.00
20091;DHT22;10205;49.678;6.560;2023-05-29T01:54:09;23.20;40.00
20091;DHT22;10205;49.678;6.560;2023-05-29T01:56:37;23.10;40.00
20091;DHT22;10205;49.678;6.560;2023-05-29T01:59:05;23.10;40.20
20091;DHT22;10205;49.678;6.560;2023-05-29T02:01:32;23.00;40.20
20091;DHT22;10205;49.678;6.560;2023-05-29T02:04:01;23.00;40.30
20091;DHT22;10205;49.678;6.560;2023-05-29T02:06:28;22.90;40.40
20091;DHT22;10205;49.678;6.560;2023-05-29T02:08:56;22.90;40.50
20091;DHT22;10205;49.678;6.560;2023-05-29T02:11:23;22.80;40.50
20091;DHT22;10205;49.678;6.560;2023-05-29T02:13:51;22.80;40.70
20091;DHT22;10205;49.678;6.560;2023-05-29T02:16:18;22.70;40.60
20091;DHT22;10205;49.678;6.560;2023-05-29T02:18:46;22.70;40.70
20091;DHT22;10205;49.678;6.560;2023-05-29T02:21:14;22.60;40.80
20091;DHT22;10205;49.678;6.560;2023-05-29T02:23:41;22.60;40.90
20091;DHT22;10205;49.678;6.560;2023-05-29T02:26:08;22.50;41.50
20091;DHT22;10205;49.678;6.560;2023-05-29T02:28:36;22.50;40.90
20091;DHT22;10205;49.678;6.560;2023-05-29T02:31:03;22.50;41.00
20091;DHT22;10205;49.678;6.560;2023-05-29T02:33:30;22.40;41.00
20091;DHT22;10205;49.678;6.560;2023-05-29T02:35:56;22.30;41.00
20091;DHT22;10205;49.678;6.560;2023-05-29T02:38:25;22.30;41.10
20091;DHT22;10205;49.678;6.560;2023-05-29T02:40:52;22.30;41.90
20091;DHT22;10205;49.678;6.560;2023-05-29T02:43:21;22.20;41.20
20091;DHT22;10205;49.678;6.560;2023-05-29T02:45:49;22.20;41.40
20091;DHT22;10205;49.678;6.560;2023-05-29T02:48:16;22.10;41.30
20091;DHT22;10205;49.678;6.560;2023-05-29T02:50:43;22.10;41.30
20091;DHT22;10205;49.678;6.560;2023-05-29T02:53:10;22.10;41.40
20091;DHT22;10205;49.678;6.560;2023-05-29T02:55:38;22.00;41.40
20091;DHT22;10205;49.678;6.560;2023-05-29T02:58:05;22.00;41.60
20091;DHT22;10205;49.678;6.560;2023-05-29T03:00:33;21.90;41.50
20091;DHT22;10205;49.678;6.560;2023-05-29T03:03:00;21.80;41.50
20091;DHT22;10205;49.678;6.560;2023-05-29T03:05:27;21.80;41.60
20091;DHT22;10205;49.678;6.560;2023-05-29T03:07:54;21.80;41.60
20091;DHT22;10205;49.678;6.560;2023-05-29T03:10:21;21.70;41.70
20091;DHT22;10205;49.678;6.560;2023-05-29T03:12:49;21.70;41.80
20091;DHT22;10205;49.678;6.560;2023-05-29T03:15:16;21.60;41.90
20091;DHT22;10205;49.678;6.560;2023-05-29T03:17:45;21.60;41.80
20091;DHT22;10205;49.678;6.560;2023-05-29T03:20:12;21.60;41.90
20091;DHT22;10205;49.678;6.560;2023-05-29T03:22:41;21.50;41.90
20091;DHT22;10205;49.678;6.560;2023-05-29T03:25:08;21.50;42.00
20091;DHT22;10205;49.678;6.560;2023-05-29T03:27:35;21.40;42.10
20091;DHT22;10205;49.678;6.560;2023-05-29T03:30:05;21.40;42.10
20091;DHT22;10205;49.678;6.560;2023-05-29T03:32:33;21.40;42.20
20091;DHT22;10205;49.678;6.560;2023-05-29T03:35:00;21.40;42.20
20091;DHT22;10205;49.678;6.560;2023-05-29T03:37:29;21.30;42.20
20091;DHT22;10205;49.678;6.560;2023-05-29T03:39:56;21.30;42.30
20091;DHT22;10205;49.678;6.560;2023-05-29T03:42:24;21.20;42.30
20091;DHT22;10205;49.678;6.560;2023-05-29T03:44:51;21.20;42.40
20091;DHT22;10205;49.678;6.560;2023-05-29T03:47:20;21.10;42.40
20091;DHT22;10205;49.678;6.560;2023-05-29T03:49:47;21.10;42.50
20091;DHT22;10205;49.678;6.560;2023-05-29T03:52:14;21.00;43.10
20091;DHT22;10205;49.678;6.560;2023-05-29T03:54:41;21.00;42.50
20091;DHT22;10205;49.678;6.560;2023-05-29T03:57:08;21.00;42.60
20091;DHT22;10205;49.678;6.560;2023-05-29T03:59:35;20.90;42.50
20091;DHT22;10205;49.678;6.560;2023-05-29T04:02:02;20.90;42.70
20091;DHT22;10205;49.678;6.560;2023-05-29T04:04:30;20.80;42.70
20091;DHT22;10205;49.678;6.560;2023-05-29T04:06:57;20.80;42.90
20091;DHT22;10205;49.678;6.560;2023-05-29T04:09:24;20.70;42.90
20091;DHT22;10205;49.678;6.560;2023-05-29T04:11:51;20.70;42.80
20091;DHT22;10205;49.678;6.560;2023-05-29T04:14:20;20.70;43.00
20091;DHT22;10205;49.678;6.560;2023-05-29T04:16:47;20.60;43.00
20091;DHT22;10205;49.678;6.560;2023-05-29T04:19:14;20.60;43.00
20091;DHT22;10205;49.678;6.560;2023-05-29T04:21:42;20.60;43.10
20091;DHT22;10205;49.678;6.560;2023-05-29T04:24:09;20.50;43.10
20091;DHT22;10205;49.678;6.560;2023-05-29T04:26:37;20.50;43.20
20091;DHT22;10205;49.678;6.560;2023-05-29T04:29:06;20.50;43.30
20091;DHT22;10205;49.678;6.560;2023-05-29T04:31:33;20.40;43.30
20091;DHT22;10205;49.678;6.560;2023-05-29T04:34:02;20.40;43.30
20091;DHT22;10205;49.678;6.560;2023-05-29T04:36:30;20.40;43.40
20091;DHT22;10205;49.678;6.560;2023-05-29T04:39:00;20.30;43.40
20091;DHT22;10205;49.678;6.560;2023-05-29T04:41:28;20.30;43.60
20091;DHT22;10205;49.678;6.560;2023-05-29T04:43:56;20.20;43.50
20091;DHT22;10205;49.678;6.560;2023-05-29T04:46:23;20.20;43.50
20091;DHT22;10205;49.678;6.560;2023-05-29T04:48:51;20.20;43.70
20091;DHT22;10205;49.678;6.560;2023-05-29T04:51:19;20.20;43.70
20091;DHT22;10205;49.678;6.560;2023-05-29T04:53:46;20.10;43.70
20091;DHT22;10205;49.678;6.560;2023-05-29T04:56:15;20.10;43.80
20091;DHT22;10205;49.678;6.560;2023-05-29T04:58:43;20.00;44.00
20091;DHT22;10205;49.678;6.560;2023-05-29T05:01:10;20.00;43.90
20091;DHT22;10205;49.678;6.560;2023-05-29T05:03:39;20.00;44.00
20091;DHT22;10205;49.678;6.560;2023-05-29T05:06:07;19.90;44.00
20091;DHT22;10205;49.678;6.560;2023-05-29T05:08:34;19.90;44.40
20091;DHT22;10205;49.678;6.560;2023-05-29T05:11:02;19.90;44.30
20091;DHT22;10205;49.678;6.560;2023-05-29T05:13:30;19.90;44.30
20091;DHT22;10205;49.678;6.560;2023-05-29T05:15:57;19.80;44.60
20091;DHT22;10205;49.678;6.560;2023-05-29T05:18:24;19.80;44.40
20091;DHT22;10205;49.678;6.560;2023-05-29T05:20:51;19.80;44.50
20091;DHT22;10205;49.678;6.560;2023-05-29T05:23:19;19.70;44.60
20091;DHT22;10205;49.678;6.560;2023-05-29T05:25:46;19.70;45.10
20091;DHT22;10205;49.678;6.560;2023-05-29T05:28:13;19.70;45.10
20091;DHT22;10205;49.678;6.560;2023-05-29T05:30:41;19.60;45.10
20091;DHT22;10205;49.678;6.560;2023-05-29T05:33:08;19.60;45.60
20091;DHT22;10205;49.678;6.560;2023-05-29T05:35:36;19.60;46.10
20091;DHT22;10205;49.678;6.560;2023-05-29T05:38:03;19.60;45.60
20091;DHT22;10205;49.678;6.560;2023-05-29T05:40:30;19.50;46.20
20091;DHT22;10205;49.678;6.560;2023-05-29T05:42:57;19.50;46.00
20091;DHT22;10205;49.678;6.560;2023-05-29T05:45:24;19.50;46.50
20091;DHT22;10205;49.678;6.560;2023-05-29T05:47:52;19.40;46.20
20091;DHT22;10205;49.678;6.560;2023-05-29T05:50:19;19.40;46.60
20091;DHT22;10205;49.678;6.560;2023-05-29T05:52:47;19.40;46.70
20091;DHT22;10205;49.678;6.560;2023-05-29T05:55:14;19.40;46.90
20091;DHT22;10205;49.678;6.560;2023-05-29T05:57:41;19.30;46.90
20091;DHT22;10205;49.678;6.560;2023-05-29T06:00:09;19.30;47.60
20091;DHT22;10205;49.678;6.560;2023-05-29T06:02:38;19.30;47.30
20091;DHT22;10205;49.678;6.560;2023-05-29T06:05:09;19.30;47.40
20091;DHT22;10205;49.678;6.560;2023-05-29T06:07:37;19.30;47.70
20091;DHT22;10205;49.678;6.560;2023-05-29T06:10:07;19.30;47.40
20091;DHT22;10205;49.678;6.560;2023-05-29T06:12:35;19.30;48.00
20091;DHT22;10205;49.678;6.560;2023-05-29T06:15:03;19.30;47.80
20091;DHT22;10205;49.678;6.560;2023-05-29T06:17:31;19.30;47.90
20091;DHT22;10205;49.678;6.560;2023-05-29T06:19:58;19.30;48.00
20091;DHT22;10205;49.678;6.560;2023-05-29T06:22:27;19.40;48.40
20091;DHT22;10205;49.678;6.560;2023-05-29T06:24:54;19.30;48.40
20091;DHT22;10205;49.678;6.560;2023-05-29T06:27:21;19.40;48.40
20091;DHT22;10205;49.678;6.560;2023-05-29T06:29:51;19.40;48.60
20091;DHT22;10205;49.678;6.560;2023-05-29T06:32:18;19.40;48.60
20091;DHT22;10205;49.678;6.560;2023-05-29T06:34:45;19.40;48.70
20091;DHT22;10205;49.678;6.560;2023-05-29T06:37:12;19.40;48.90
20091;DHT22;10205;49.678;6.560;2023-05-29T06:39:44;19.50;48.90
20091;DHT22;10205;49.678;6.560;2023-05-29T06:42:11;19.50;49.40
20091;DHT22;10205;49.678;6.560;2023-05-29T06:44:38;19.50;49.40
20091;DHT22;10205;49.678;6.560;2023-05-29T06:47:05;19.50;49.20
20091;DHT22;10205;49.678;6.560;2023-05-29T06:49:33;19.60;49.20
20091;DHT22;10205;49.678;6.560;2023-05-29T06:52:00;19.60;49.40
20091;DHT22;10205;49.678;6.560;2023-05-29T06:54:27;19.70;49.40
20091;DHT22;10205;49.678;6.560;2023-05-29T06:56:55;19.70;49.40
20091;DHT22;10205;49.678;6.560;2023-05-29T06:59:22;19.80;49.20
20091;DHT22;10205;49.678;6.560;2023-05-29T07:01:49;19.80;49.40
20091;DHT22;10205;49.678;6.560;2023-05-29T07:04:16;19.90;49.60
20091;DHT22;10205;49.678;6.560;2023-05-29T07:06:43;19.90;49.40
20091;DHT22;10205;49.678;6.560;2023-05-29T07:09:10;20.00;49.70
20091;DHT22;10205;49.678;6.560;2023-05-29T07:11:38;20.00;49.40
20091;DHT22;10205;49.678;6.560;2023-05-29T07:14:06;20.10;49.40
20091;DHT22;10205;49.678;6.560;2023-05-29T07:16:33;20.20;49.50
20091;DHT22;10205;49.678;6.560;2023-05-29T07:19:01;20.20;49.30
20091;DHT22;10205;49.678;6.560;2023-05-29T07:21:27;20.20;49.20
20091;DHT22;10205;49.678;6.560;2023-05-29T07:23:54;20.30;49.40
20091;DHT22;10205;49.678;6.560;2023-05-29T07:26:21;20.30;49.40
20091;DHT22;10205;49.678;6.560;2023-05-29T07:28:49;20.40;49.40
20091;DHT22;10205;49.678;6.560;2023-05-29T07:31:22;20.50;49.30
20091;DHT22;10205;49.678;6.560;2023-05-29T07:33:51;20.50;49.80
20091;DHT22;10205;49.678;6.560;2023-05-29T07:36:17;20.60;49.20
20091;DHT22;10205;49.678;6.560;2023-05-29T07:38:48;20.70;49.30
20091;DHT22;10205;49.678;6.560;2023-05-29T07:41:15;20.70;49.20
20091;DHT22;10205;49.678;6.560;2023-05-29T07:43:43;20.80;49.10
20091;DHT22;10205;49.678;6.560;2023-05-29T07:46:16;20.80;49.20
20091;DHT22;10205;49.678;6.560;2023-05-29T07:48:44;20.90;49.00
20091;DHT22;10205;49.678;6.560;2023-05-29T07:51:12;21.00;49.20
20091;DHT22;10205;49.678;6.560;2023-05-29T07:53:39;21.00;49.10
20091;DHT22;10205;49.678;6.560;2023-05-29T07:56:06;21.10;49.20
20091;DHT22;10205;49.678;6.560;2023-05-29T07:58:33;21.20;49.00
20091;DHT22;10205;49.678;6.560;2023-05-29T08:01:00;21.20;49.00
20091;DHT22;10205;49.678;6.560;2023-05-29T08:03:27;21.30;49.00
20091;DHT22;10205;49.678;6.560;2023-05-29T08:05:57;21.40;49.20
20091;DHT22;10205;49.678;6.560;2023-05-29T08:08:24;21.50;49.10
20091;DHT22;10205;49.678;6.560;2023-05-29T08:10:51;21.50;48.90
20091;DHT22;10205;49.678;6.560;2023-05-29T08:13:18;21.60;48.90
20091;DHT22;10205;49.678;6.560;2023-05-29T08:15:45;21.70;48.80
20091;DHT22;10205;49.678;6.560;2023-05-29T08:18:12;21.80;48.60
20091;DHT22;10205;49.678;6.560;2023-05-29T08:20:39;21.90;48.80
20091;DHT22;10205;49.678;6.560;2023-05-29T08:23:07;21.90;48.60
20091;DHT22;10205;49.678;6.560;2023-05-29T08:25:34;22.00;48.50
20091;DHT22;10205;49.678;6.560;2023-05-29T08:28:01;22.10;48.30
20091;DHT22;10205;49.678;6.560;2023-05-29T08:30:28;22.20;48.40
20091;DHT22;10205;49.678;6.560;2023-05-29T08:32:56;22.30;48.20
20091;DHT22;10205;49.678;6.560;2023-05-29T08:35:23;22.40;48.10
20091;DHT22;10205;49.678;6.560;2023-05-29T08:37:50;22.50;48.00
20091;DHT22;10205;49.678;6.560;2023-05-29T08:40:19;22.50;47.80
20091;DHT22;10205;49.678;6.560;2023-05-29T08:42:48;22.60;47.70
20091;DHT22;10205;49.678;6.560;2023-05-29T08:45:22;22.70;47.70
20091;DHT22;10205;49.678;6.560;2023-05-29T08:47:52;22.80;47.50
20091;DHT22;10205;49.678;6.560;2023-05-29T08:50:21;22.90;47.30
20091;DHT22;10205;49.678;6.560;2023-05-29T08:52:49;23.00;47.10
20091;DHT22;10205;49.678;6.560;2023-05-29T08:55:16;23.00;47.10
20091;DHT22;10205;49.678;6.560;2023-05-29T08:57:45;23.20;46.90
20091;DHT22;10205;49.678;6.560;2023-05-29T09:00:15;23.20;46.80
20091;DHT22;10205;49.678;6.560;2023-05-29T09:02:44;23.40;46.70
20091;DHT22;10205;49.678;6.560;2023-05-29T09:05:13;23.40;47.10
20091;DHT22;10205;49.678;6.560;2023-05-29T09:07:40;23.50;46.20
20091;DHT22;10205;49.678;6.560;2023-05-29T09:10:09;23.60;46.00
20091;DHT22;10205;49.678;6.560;2023-05-29T09:12:38;23.70;45.80
20091;DHT22;10205;49.678;6.560;2023-05-29T09:15:16;23.80;45.70
20091;DHT22;10205;49.678;6.560;2023-05-29T09:17:48;23.90;45.60
20091;DHT22;10205;49.678;6.560;2023-05-29T09:20:17;24.00;45.60
20091;DHT22;10205;49.678;6.560;2023-05-29T09:22:52;24.10;45.30
20091;DHT22;10205;49.678;6.560;2023-05-29T09:25:22;24.20;45.00
20091;DHT22;10205;49.678;6.560;2023-05-29T09:27:58;24.30;44.80
20091;DHT22;10205;49.678;6.560;2023-05-29T09:30:36;24.40;44.40
20091;DHT22;10205;49.678;6.560;2023-05-29T09:33:05;24.50;44.50
20091;DHT22;10205;49.678;6.560;2023-05-29T09:35:36;24.60;44.30
20091;DHT22;10205;49.678;6.560;2023-05-29T09:38:04;24.70;44.10
20091;DHT22;10205;49.678;6.560;2023-05-29T09:40:32;24.80;44.00
20091;DHT22;10205;49.678;6.560;2023-05-29T09:43:05;24.80;43.70
20091;DHT22;10205;49.678;6.560;2023-05-29T09:45:37;24.90;43.50
20091;DHT22;10205;49.678;6.560;2023-05-29T09:48:06;25.00;43.40
20091;DHT22;10205;49.678;6.560;2023-05-29T09:50:34;25.10;43.30
20091;DHT22;10205;49.678;6.560;2023-05-29T09:53:01;25.20;43.10
20091;DHT22;10205;49.678;6.560;2023-05-29T09:55:30;25.30;43.00
20091;DHT22;10205;49.678;6.560;2023-05-29T09:57:59;25.40;42.80
20091;DHT22;10205;49.678;6.560;2023-05-29T10:00:29;25.50;42.90
20091;DHT22;10205;49.678;6.560;2023-05-29T10:02:58;25.60;42.70
20091;DHT22;10205;49.678;6.560;2023-05-29T10:05:27;25.60;42.50
20091;DHT22;10205;49.678;6.560;2023-05-29T10:07:54;25.70;42.40
20091;DHT22;10205;49.678;6.560;2023-05-29T10:10:24;25.80;42.00
20091;DHT22;10205;49.678;6.560;2023-05-29T10:12:53;25.90;41.80
20091;DHT22;10205;49.678;6.560;2023-05-29T10:15:23;26.10;41.70
20091;DHT22;10205;49.678;6.560;2023-05-29T10:18:02;26.10;41.70
20091;DHT22;10205;49.678;6.560;2023-05-29T10:20:31;26.20;41.50
20091;DHT22;10205;49.678;6.560;2023-05-29T10:23:01;26.30;41.20
20091;DHT22;10205;49.678;6.560;2023-05-29T10:25:31;26.40;41.00
20091;DHT22;10205;49.678;6.560;2023-05-29T10:28:00;26.50;40.90
20091;DHT22;10205;49.678;6.560;2023-05-29T10:30:34;26.60;40.80
20091;DHT22;10205;49.678;6.560;2023-05-29T10:33:20;26.70;40.80
20091;DHT22;10205;49.678;6.560;2023-05-29T10:36:04;26.80;40.10
20091;DHT22;10205;49.678;6.560;2023-05-29T10:38:37;26.90;40.10
20091;DHT22;10205;49.678;6.560;2023-05-29T10:41:28;27.00;40.10
20091;DHT22;10205;49.678;6.560;2023-05-29T10:43:59;27.00;39.70
20091;DHT22;10205;49.678;6.560;2023-05-29T10:49:32;27.20;39.80
20091;DHT22;10205;49.678;6.560;2023-05-29T10:52:00;27.30;39.40
20091;DHT22;10205;49.678;6.560;2023-05-29T10:54:40;27.40;39.50
20091;DHT22;10205;49.678;6.560;2023-05-29T10:57:16;27.50;39.20
20091;DHT22;10205;49.678;6.560;2023-05-29T10:59:45;27.60;39.30
20091;DHT22;10205;49.678;6.560;2023-05-29T11:02:17;27.70;39.40
20091;DHT22;10205;49.678;6.560;2023-05-29T11:05:04;27.70;38.70
20091;DHT22;10205;49.678;6.560;2023-05-29T11:07:33;27.80;38.60
20091;DHT22;10205;49.678;6.560;2023-05-29T11:10:12;27.90;38.70
20091;DHT22;10205;49.678;6.560;2023-05-29T11:12:58;28.00;38.40
20091;DHT22;10205;49.678;6.560;2023-05-29T11:15:25;28.00;38.60
20091;DHT22;10205;49.678;6.560;2023-05-29T11:17:53;28.10;38.70
20091;DHT22;10205;49.678;6.560;2023-05-29T11:20:36;28.20;38.30
20091;DHT22;10205;49.678;6.560;2023-05-29T11:23:15;28.20;38.40
20091;DHT22;10205;49.678;6.560;2023-05-29T11:25:44;28.40;38.10
20091;DHT22;10205;49.678;6.560;2023-05-29T11:28:13;28.40;38.00
20091;DHT22;10205;49.678;6.560;2023-05-29T11:30:45;28.50;37.80
20091;DHT22;10205;49.678;6.560;2023-05-29T11:33:20;28.60;37.80
20091;DHT22;10205;49.678;6.560;2023-05-29T11:35:56;28.70;37.60
20091;DHT22;10205;49.678;6.560;2023-05-29T11:38:24;28.80;37.80
20091;DHT22;10205;49.678;6.560;2023-05-29T11:40:52;28.90;37.50
20091;DHT22;10205;49.678;6.560;2023-05-29T11:43:20;28.90;37.30
20091;DHT22;10205;49.678;6.560;2023-05-29T11:45:48;29.00;37.20
20091;DHT22;10205;49.678;6.560;2023-05-29T11:48:15;29.10;36.70
20091;DHT22;10205;49.678;6.560;2023-05-29T11:50:42;29.10;36.80
20091;DHT22;10205;49.678;6.560;2023-05-29T11:53:11;29.20;36.60
20091;DHT22;10205;49.678;6.560;2023-05-29T11:55:38;29.20;36.60
20091;DHT22;10205;49.678;6.560;2023-05-29T11:58:06;29.30;36.50
20091;DHT22;10205;49.678;6.560;2023-05-29T12:00:34;29.30;36.30
20091;DHT22;10205;49.678;6.560;2023-05-29T12:03:03;29.40;36.30
20091;DHT22;10205;49.678;6.560;2023-05-29T12:05:43;29.50;36.40
20091;DHT22;10205;49.678;6.560;2023-05-29T12:08:12;29.50;36.80
20091;DHT22;10205;49.678;6.560;2023-05-29T12:10:46;29.60;35.80
20091;DHT22;10205;49.678;6.560;2023-05-29T12:13:14;29.60;35.80
20091;DHT22;10205;49.678;6.560;2023-05-29T12:15:42;29.70;35.90
20091;DHT22;10205;49.678;6.560;2023-05-29T12:18:10;29.80;36.10
20091;DHT22;10205;49.678;6.560;2023-05-29T12:20:38;29.80;35.70
20091;DHT22;10205;49.678;6.560;2023-05-29T12:23:05;29.90;35.40
20091;DHT22;10205;49.678;6.560;2023-05-29T12:25:35;30.00;35.20
20091;DHT22;10205;49.678;6.560;2023-05-29T12:28:03;30.10;34.80
20091;DHT22;10205;49.678;6.560;2023-05-29T12:30:31;30.10;35.00
20091;DHT22;10205;49.678;6.560;2023-05-29T12:33:03;30.30;35.20
20091;DHT22;10205;49.678;6.560;2023-05-29T12:35:32;30.30;34.90
20091;DHT22;10205;49.678;6.560;2023-05-29T12:38:02;30.40;34.40
20091;DHT22;10205;49.678;6.560;2023-05-29T12:40:35;30.40;34.60
20091;DHT22;10205;49.678;6.560;2023-05-29T12:43:05;30.40;34.60
20091;DHT22;10205;49.678;6.560;2023-05-29T12:45:35;30.40;34.20
20091;DHT22;10205;49.678;6.560;2023-05-29T12:48:03;30.40;33.90
20091;DHT22;10205;49.678;6.560;2023-05-29T12:50:32;30.50;33.80
20091;DHT22;10205;49.678;6.560;2023-05-29T12:53:01;30.50;34.00
20091;DHT22;10205;49.678;6.560;2023-05-29T12:55:32;30.60;34.00
20091;DHT22;10205;49.678;6.560;2023-05-29T12:58:03;30.60;33.80
20091;DHT22;10205;49.678;6.560;2023-05-29T13:00:30;30.70;33.70
20091;DHT22;10205;49.678;6.560;2023-05-29T13:02:58;30.70;33.50
20091;DHT22;10205;49.678;6.560;2023-05-29T13:05:26;30.80;33.50
20091;DHT22;10205;49.678;6.560;2023-05-29T13:07:53;30.90;33.60
20091;DHT22;10205;49.678;6.560;2023-05-29T13:10:21;31.00;33.30
20091;DHT22;10205;49.678;6.560;2023-05-29T13:12:50;31.00;33.30
20091;DHT22;10205;49.678;6.560;2023-05-29T13:15:20;31.10;33.10
20091;DHT22;10205;49.678;6.560;2023-05-29T13:17:49;31.10;33.10
20091;DHT22;10205;49.678;6.560;2023-05-29T13:20:17;31.10;32.80
20091;DHT22;10205;49.678;6.560;2023-05-29T13:22:46;31.20;32.90
20091;DHT22;10205;49.678;6.560;2023-05-29T13:25:17;31.20;32.60
20091;DHT22;10205;49.678;6.560;2023-05-29T13:27:47;31.30;32.80
20091;DHT22;10205;49.678;6.560;2023-05-29T13:30:16;31.30;32.70
20091;DHT22;10205;49.678;6.560;2023-05-29T13:32:44;31.40;32.30
20091;DHT22;10205;49.678;6.560;2023-05-29T13:35:11;31.50;32.50
20091;DHT22;10205;49.678;6.560;2023-05-29T13:37:39;31.40;32.60
20091;DHT22;10205;49.678;6.560;2023-05-29T13:40:07;31.50;32.50
20091;DHT22;10205;49.678;6.560;2023-05-29T13:42:35;31.50;32.10
20091;DHT22;10205;49.678;6.560;2023-05-29T13:45:04;31.50;32.30
20091;DHT22;10205;49.678;6.560;2023-05-29T13:47:34;31.60;32.10
20091;DHT22;10205;49.678;6.560;2023-05-29T13:50:01;31.60;32.40
20091;DHT22;10205;49.678;6.560;2023-05-29T13:52:29;31.60;32.10
20091;DHT22;10205;49.678;6.560;2023-05-29T13:54:56;31.70;32.20
20091;DHT22;10205;49.678;6.560;2023-05-29T13:57:25;31.70;32.20
20091;DHT22;10205;49.678;6.560;2023-05-29T13:59:53;31.70;32.00
20091;DHT22;10205;49.678;6.560;2023-05-29T14:02:20;31.70;31.80
20091;DHT22;10205;49.678;6.560;2023-05-29T14:04:49;31.80;31.80
20091;DHT22;10205;49.678;6.560;2023-05-29T14:07:16;31.80;31.90
20091;DHT22;10205;49.678;6.560;2023-05-29T14:09:43;31.80;32.00
20091;DHT22;10205;49.678;6.560;2023-05-29T14:12:10;31.80;31.80
20091;DHT22;10205;49.678;6.560;2023-05-29T14:14:37;31.90;32.20
20091;DHT22;10205;49.678;6.560;2023-05-29T14:17:05;31.90;31.80
20091;DHT22;10205;49.678;6.560;2023-05-29T14:19:32;31.90;31.70
20091;DHT22;10205;49.678;6.560;2023-05-29T14:22:01;31.90;31.20
20091;DHT22;10205;49.678;6.560;2023-05-29T14:24:28;32.00;31.40
20091;DHT22;10205;49.678;6.560;2023-05-29T14:26:55;32.00;31.20
20091;DHT22;10205;49.678;6.560;2023-05-29T14:29:22;32.00;31.10
20091;DHT22;10205;49.678;6.560;2023-05-29T14:31:50;32.00;31.50
20091;DHT22;10205;49.678;6.560;2023-05-29T14:34:17;32.00;31.30
20091;DHT22;10205;49.678;6.560;2023-05-29T14:36:44;32.00;31.40
20091;DHT22;10205;49.678;6.560;2023-05-29T14:39:12;32.00;31.60
20091;DHT22;10205;49.678;6.560;2023-05-29T14:41:39;32.10;31.40
20091;DHT22;10205;49.678;6.560;2023-05-29T14:44:06;32.10;31.40
20091;DHT22;10205;49.678;6.560;2023-05-29T14:46:33;32.10;31.60
20091;DHT22;10205;49.678;6.560;2023-05-29T14:49:01;32.10;31.70
20091;DHT22;10205;49.678;6.560;2023-05-29T14:51:28;32.10;31.50
20091;DHT22;10205;49.678;6.560;2023-05-29T14:53:55;32.10;32.10
20091;DHT22;10205;49.678;6.560;2023-05-29T14:56:23;32.10;31.50
20091;DHT22;10205;49.678;6.560;2023-05-29T14:58:50;32.10;31.00
20091;DHT22;10205;49.678;6.560;2023-05-29T15:01:17;32.10;31.30
20091;DHT22;10205;49.678;6.560;2023-05-29T15:03:45;32.10;31.90
20091;DHT22;10205;49.678;6.560;2023-05-29T15:06:12;32.10;31.10
20091;DHT22;10205;49.678;6.560;2023-05-29T15:08:40;32.10;31.20
20091;DHT22;10205;49.678;6.560;2023-05-29T15:11:08;32.20;31.30
20091;DHT22;10205;49.678;6.560;2023-05-29T15:13:40;32.10;31.40
20091;DHT22;10205;49.678;6.560;2023-05-29T15:16:08;32.20;31.10
20091;DHT22;10205;49.678;6.560;2023-05-29T15:18:35;32.20;31.20
20091;DHT22;10205;49.678;6.560;2023-05-29T15:21:02;32.20;31.50
20091;DHT22;10205;49.678;6.560;2023-05-29T15:23:30;32.20;31.30
20091;DHT22;10205;49.678;6.560;2023-05-29T15:25:59;32.20;31.80
20091;DHT22;10205;49.678;6.560;2023-05-29T15:28:28;32.30;31.40
20091;DHT22;10205;49.678;6.560;2023-05-29T15:30:56;32.30;31.50
20091;DHT22;10205;49.678;6.560;2023-05-29T15:33:23;32.30;31.20
20091;DHT22;10205;49.678;6.560;2023-05-29T15:35:50;32.30;31.20
20091;DHT22;10205;49.678;6.560;2023-05-29T15:38:17;32.30;31.60
20091;DHT22;10205;49.678;6.560;2023-05-29T15:40:45;32.30;31.50
20091;DHT22;10205;49.678;6.560;2023-05-29T15:43:12;32.40;31.40